sensor_id;sensor_type;location;lat;lon;timestamp;P1;P2;P0
61804;PMS7003;47725;47.912;7.356;2024-02-21T00:02:57;16.46;14.52;
61804;PMS7003;47725;47.912;7.356;2024-02-21T00:06:58;12.60;12.60;
61804;PMS7003;47725;47.912;7.356;2024-02-21T00:10:57;12.60;12.60;
61804;PMS7003;47725;47.912;7.356;2024-02-21T00:14:57;12.60;12.60;
61804;PMS7003;47725;47.912;7.356;2024-02-21T00:18:57;18.43;17.46;
61804;PMS7003;47725;47.912;7.356;2024-02-21T00:22:57;18.43;17.46;
61804;PMS7003;47725;47.912;7.356;2024-02-21T00:26:57;18.38;15.48;
61804;PMS7003;47725;47.912;7.356;2024-02-21T00:30:57;18.38;15.48;
61804;PMS7003;47725;47.912;7.356;2024-02-21T00:34:57;18.38;15.48;
61804;PMS7003;47725;47.912;7.356;2024-02-21T00:38:57;18.39;17.42;
61804;PMS7003;47725;47.912;7.356;2024-02-21T00:42:57;18.39;17.42;
61804;PMS7003;47725;47.912;7.356;2024-02-21T00:46:57;24.17;20.30;
61804;PMS7003;47725;47.912;7.356;2024-02-21T00:50:57;24.17;20.30;
61804;PMS7003;47725;47.912;7.356;2024-02-21T00:54:57;24.17;20.30;
61804;PMS7003;47725;47.912;7.356;2024-02-21T00:58:57;19.26;16.37;
61804;PMS7003;47725;47.912;7.356;2024-02-21T01:02:57;19.26;16.37;
61804;PMS7003;47725;47.912;7.356;2024-02-21T01:06:57;23.15;20.25;
61804;PMS7003;47725;47.912;7.356;2024-02-21T01:10:57;23.15;20.25;
61804;PMS7003;47725;47.912;7.356;2024-02-21T01:14:57;23.15;20.25;
61804;PMS7003;47725;47.912;7.356;2024-02-21T01:18:57;17.27;17.27;
61804;PMS7003;47725;47.912;7.356;2024-02-21T01:22:57;17.27;17.27;
61804;PMS7003;47725;47.912;7.356;2024-02-21T01:26:57;17.23;16.27;
61804;PMS7003;47725;47.912;7.356;2024-02-21T01:30:57;17.23;16.27;
61804;PMS7003;47725;47.912;7.356;2024-02-21T01:34:57;17.23;16.27;
61804;PMS7003;47725;47.912;7.356;2024-02-21T01:38:57;18.12;15.26;
61804;PMS7003;47725;47.912;7.356;2024-02-21T01:42:57;18.12;15.26;
61804;PMS7003;47725;47.912;7.356;2024-02-21T01:46:57;14.37;11.49;
61804;PMS7003;47725;47.912;7.356;2024-02-21T01:50:57;14.37;11.49;
61804;PMS7003;47725;47.912;7.356;2024-02-21T01:54:57;14.37;11.49;
61804;PMS7003;47725;47.912;7.356;2024-02-21T01:58:57;12.46;12.46;
61804;PMS7003;47725;47.912;7.356;2024-02-21T02:02:57;12.46;12.46;
61804;PMS7003;47725;47.912;7.356;2024-02-21T02:06:57;16.30;15.34;
61804;PMS7003;47725;47.912;7.356;2024-02-21T02:10:57;16.30;15.34;
61804;PMS7003;47725;47.912;7.356;2024-02-21T02:14:58;16.30;15.34;
61804;PMS7003;47725;47.912;7.356;2024-02-21T02:18:57;18.22;18.22;
61804;PMS7003;47725;47.912;7.356;2024-02-21T02:22:58;18.22;18.22;
61804;PMS7003;47725;47.912;7.356;2024-02-21T02:26:57;11.50;11.50;
61804;PMS7003;47725;47.912;7.356;2024-02-21T02:30:57;11.50;11.50;
61804;PMS7003;47725;47.912;7.356;2024-02-21T02:34:57;11.50;11.50;
61804;PMS7003;47725;47.912;7.356;2024-02-21T02:38:57;14.34;11.47;
61804;PMS7003;47725;47.912;7.356;2024-02-21T02:42:57;14.34;11.47;
61804;PMS7003;47725;47.912;7.356;2024-02-21T02:46:57;12.44;11.48;
61804;PMS7003;47725;47.912;7.356;2024-02-21T02:50:57;12.44;11.48;
61804;PMS7003;47725;47.912;7.356;2024-02-21T02:54:58;12.44;11.48;
61804;PMS7003;47725;47.912;7.356;2024-02-21T02:58:57;15.27;10.50;
61804;PMS7003;47725;47.912;7.356;2024-02-21T03:02:57;15.27;10.50;
61804;PMS7003;47725;47.912;7.356;2024-02-21T03:06:57;15.24;12.38;
61804;PMS7003;47725;47.912;7.356;2024-02-21T03:10:57;15.24;12.38;
61804;PMS7003;47725;47.912;7.356;2024-02-21T03:14:57;15.24;12.38;
61804;PMS7003;47725;47.912;7.356;2024-02-21T03:18:57;14.31;12.40;
61804;PMS7003;47725;47.912;7.356;2024-02-21T03:22:57;14.31;12.40;
61804;PMS7003;47725;47.912;7.356;2024-02-21T03:26:57;14.32;11.45;
61804;PMS7003;47725;47.912;7.356;2024-02-21T03:30:57;14.32;11.45;
61804;PMS7003;47725;47.912;7.356;2024-02-21T03:34:57;14.32;11.45;
61804;PMS7003;47725;47.912;7.356;2024-02-21T03:38:57;12.39;7.62;
61804;PMS7003;47725;47.912;7.356;2024-02-21T03:42:57;12.39;7.62;
61804;PMS7003;47725;47.912;7.356;2024-02-21T03:46:58;10.45;8.55;
61804;PMS7003;47725;47.912;7.356;2024-02-21T03:50:57;10.45;8.55;
61804;PMS7003;47725;47.912;7.356;2024-02-21T03:54:57;10.45;8.55;
61804;PMS7003;47725;47.912;7.356;2024-02-21T03:58:57;8.56;7.61;
61804;PMS7003;47725;47.912;7.356;2024-02-21T04:02:57;8.56;7.61;
61804;PMS7003;47725;47.912;7.356;2024-02-21T04:06:57;6.66;6.66;
61804;PMS7003;47725;47.912;7.356;2024-02-21T04:10:57;6.66;6.66;
61804;PMS7003;47725;47.912;7.356;2024-02-21T04:14:57;6.66;6.66;
61804;PMS7003;47725;47.912;7.356;2024-02-21T04:18:57;9.53;8.58;
61804;PMS7003;47725;47.912;7.356;2024-02-21T04:22:57;9.53;8.58;
61804;PMS7003;47725;47.912;7.356;2024-02-21T04:26:57;9.54;7.64;
61804;PMS7003;47725;47.912;7.356;2024-02-21T04:30:57;9.54;7.64;
61804;PMS7003;47725;47.912;7.356;2024-02-21T04:34:57;9.54;7.64;
61804;PMS7003;47725;47.912;7.356;2024-02-21T04:38:57;9.54;7.63;
61804;PMS7003;47725;47.912;7.356;2024-02-21T04:42:57;9.54;7.63;
61804;PMS7003;47725;47.912;7.356;2024-02-21T04:46:57;8.58;7.62;
61804;PMS7003;47725;47.912;7.356;2024-02-21T04:50:57;8.58;7.62;
61804;PMS7003;47725;47.912;7.356;2024-02-21T04:54:57;8.58;7.62;
61804;PMS7003;47725;47.912;7.356;2024-02-21T04:58:57;10.48;9.52;
61804;PMS7003;47725;47.912;7.356;2024-02-21T05:02:57;10.48;9.52;
61804;PMS7003;47725;47.912;7.356;2024-02-21T05:06:57;10.46;10.46;
61804;PMS7003;47725;47.912;7.356;2024-02-21T05:10:57;10.46;10.46;
61804;PMS7003;47725;47.912;7.356;2024-02-21T05:14:57;10.46;10.46;
61804;PMS7003;47725;47.912;7.356;2024-02-21T05:18:57;8.55;8.55;
61804;PMS7003;47725;47.912;7.356;2024-02-21T05:22:57;8.55;8.55;
61804;PMS7003;47725;47.912;7.356;2024-02-21T05:26:57;10.46;9.51;
61804;PMS7003;47725;47.912;7.356;2024-02-21T05:30:57;10.46;9.51;
61804;PMS7003;47725;47.912;7.356;2024-02-21T05:34:57;10.46;9.51;
61804;PMS7003;47725;47.912;7.356;2024-02-21T05:38:57;7.61;7.61;
61804;PMS7003;47725;47.912;7.356;2024-02-21T05:42:57;7.61;7.61;
61804;PMS7003;47725;47.912;7.356;2024-02-21T05:46:57;11.42;9.52;
61804;PMS7003;47725;47.912;7.356;2024-02-21T05:50:57;11.42;9.52;
61804;PMS7003;47725;47.912;7.356;2024-02-21T05:54:57;11.42;9.52;
61804;PMS7003;47725;47.912;7.356;2024-02-21T05:58:57;10.48;10.48;
61804;PMS7003;47725;47.912;7.356;2024-02-21T06:02:57;10.48;10.48;
61804;PMS7003;47725;47.912;7.356;2024-02-21T06:06:57;13.31;9.51;
61804;PMS7003;47725;47.912;7.356;2024-02-21T06:10:57;13.31;9.51;
61804;PMS7003;47725;47.912;7.356;2024-02-21T06:14:57;13.31;9.51;
61804;PMS7003;47725;47.912;7.356;2024-02-21T06:18:57;15.19;10.45;
61804;PMS7003;47725;47.912;7.356;2024-02-21T06:22:57;15.19;10.45;
61804;PMS7003;47725;47.912;7.356;2024-02-21T06:26:57;14.27;14.27;
61804;PMS7003;47725;47.912;7.356;2024-02-21T06:30:57;14.27;14.27;
61804;PMS7003;47725;47.912;7.356;2024-02-21T06:34:57;14.27;14.27;
61804;PMS7003;47725;47.912;7.356;2024-02-21T06:38:58;26.59;22.79;
61804;PMS7003;47725;47.912;7.356;2024-02-21T06:42:57;26.59;22.79;
61804;PMS7003;47725;47.912;7.356;2024-02-21T06:46:57;14.22;12.33;
61804;PMS7003;47725;47.912;7.356;2024-02-21T06:50:57;14.22;12.33;
61804;PMS7003;47725;47.912;7.356;2024-02-21T06:54:57;14.22;12.33;
61804;PMS7003;47725;47.912;7.356;2024-02-21T06:58:57;10.41;9.46;
61804;PMS7003;47725;47.912;7.356;2024-02-21T07:02:57;10.41;9.46;
61804;PMS7003;47725;47.912;7.356;2024-02-21T07:06:57;15.16;9.48;
61804;PMS7003;47725;47.912;7.356;2024-02-21T07:10:57;15.16;9.48;
61804;PMS7003;47725;47.912;7.356;2024-02-21T07:14:57;15.16;9.48;
61804;PMS7003;47725;47.912;7.356;2024-02-21T07:18:57;18.04;15.19;
61804;PMS7003;47725;47.912;7.356;2024-02-21T07:22:57;18.04;15.19;
61804;PMS7003;47725;47.912;7.356;2024-02-21T07:26:57;12.34;9.49;
61804;PMS7003;47725;47.912;7.356;2024-02-21T07:30:58;12.34;9.49;
61804;PMS7003;47725;47.912;7.356;2024-02-21T07:34:57;12.34;9.49;
61804;PMS7003;47725;47.912;7.356;2024-02-21T07:38:57;8.52;7.57;
61804;PMS7003;47725;47.912;7.356;2024-02-21T07:42:57;8.52;7.57;
61804;PMS7003;47725;47.912;7.356;2024-02-21T07:46:57;7.57;7.57;
61804;PMS7003;47725;47.912;7.356;2024-02-21T07:50:57;7.57;7.57;
61804;PMS7003;47725;47.912;7.356;2024-02-21T07:54:57;7.57;7.57;
61804;PMS7003;47725;47.912;7.356;2024-02-21T07:58:57;8.52;8.52;
61804;PMS7003;47725;47.912;7.356;2024-02-21T08:02:57;8.52;8.52;
61804;PMS7003;47725;47.912;7.356;2024-02-21T08:06:57;7.57;5.68;
61804;PMS7003;47725;47.912;7.356;2024-02-21T08:10:57;7.57;5.68;
61804;PMS7003;47725;47.912;7.356;2024-02-21T08:14:57;7.57;5.68;
61804;PMS7003;47725;47.912;7.356;2024-02-21T08:18:57;9.45;7.56;
61804;PMS7003;47725;47.912;7.356;2024-02-21T08:22:57;9.45;7.56;
61804;PMS7003;47725;47.912;7.356;2024-02-21T08:26:57;10.40;8.51;
61804;PMS7003;47725;47.912;7.356;2024-02-21T08:30:57;10.40;8.51;
61804;PMS7003;47725;47.912;7.356;2024-02-21T08:34:57;10.40;8.51;
61804;PMS7003;47725;47.912;7.356;2024-02-21T08:38:57;9.49;7.59;
61804;PMS7003;47725;47.912;7.356;2024-02-21T08:42:57;9.49;7.59;
61804;PMS7003;47725;47.912;7.356;2024-02-21T08:46:57;8.55;8.55;
61804;PMS7003;47725;47.912;7.356;2024-02-21T08:50:57;8.55;8.55;
61804;PMS7003;47725;47.912;7.356;2024-02-21T08:54:57;8.55;8.55;
61804;PMS7003;47725;47.912;7.356;2024-02-21T08:58:57;9.52;9.52;
61804;PMS7003;47725;47.912;7.356;2024-02-21T09:02:57;9.52;9.52;
61804;PMS7003;47725;47.912;7.356;2024-02-21T09:06:57;9.53;9.53;
61804;PMS7003;47725;47.912;7.356;2024-02-21T09:10:57;9.53;9.53;
61804;PMS7003;47725;47.912;7.356;2024-02-21T09:14:57;9.53;9.53;
61804;PMS7003;47725;47.912;7.356;2024-02-21T09:18:57;9.56;8.60;
61804;PMS7003;47725;47.912;7.356;2024-02-21T09:22:57;9.56;8.60;
61804;PMS7003;47725;47.912;7.356;2024-02-21T09:26:57;10.51;8.60;
61804;PMS7003;47725;47.912;7.356;2024-02-21T09:30:57;10.51;8.60;
61804;PMS7003;47725;47.912;7.356;2024-02-21T09:34:57;10.51;8.60;
61804;PMS7003;47725;47.912;7.356;2024-02-21T09:38:57;8.63;5.76;
61804;PMS7003;47725;47.912;7.356;2024-02-21T09:43:03;8.63;5.76;
61804;PMS7003;47725;47.912;7.356;2024-02-21T09:47:03;8.67;7.71;
61804;PMS7003;47725;47.912;7.356;2024-02-21T09:50:57;8.67;7.71;
61804;PMS7003;47725;47.912;7.356;2024-02-21T09:54:58;8.67;7.71;
61804;PMS7003;47725;47.912;7.356;2024-02-21T09:58:57;4.83;4.83;
61804;PMS7003;47725;47.912;7.356;2024-02-21T10:02:58;4.83;4.83;
61804;PMS7003;47725;47.912;7.356;2024-02-21T10:06:57;5.81;3.88;
61804;PMS7003;47725;47.912;7.356;2024-02-21T10:10:57;5.81;3.88;
61804;PMS7003;47725;47.912;7.356;2024-02-21T10:15:00;5.81;3.88;
61804;PMS7003;47725;47.912;7.356;2024-02-21T10:18:57;5.82;5.82;
61804;PMS7003;47725;47.912;7.356;2024-02-21T10:23:00;5.82;5.82;
61804;PMS7003;47725;47.912;7.356;2024-02-21T10:27:01;9.72;5.83;
61804;PMS7003;47725;47.912;7.356;2024-02-21T10:30:57;9.72;5.83;
61804;PMS7003;47725;47.912;7.356;2024-02-21T10:35:03;9.72;5.83;
61804;PMS7003;47725;47.912;7.356;2024-02-21T10:38:57;10.75;5.86;
61804;PMS7003;47725;47.912;7.356;2024-02-21T10:42:57;10.75;5.86;
61804;PMS7003;47725;47.912;7.356;2024-02-21T10:46:57;6.85;4.90;
61804;PMS7003;47725;47.912;7.356;2024-02-21T10:50:57;6.85;4.90;
61804;PMS7003;47725;47.912;7.356;2024-02-21T10:55:01;6.85;4.90;
61804;PMS7003;47725;47.912;7.356;2024-02-21T10:58:57;4.91;3.93;
61804;PMS7003;47725;47.912;7.356;2024-02-21T11:02:57;4.91;3.93;
61804;PMS7003;47725;47.912;7.356;2024-02-21T11:06:56;5.92;3.95;
61804;PMS7003;47725;47.912;7.356;2024-02-21T11:10:57;5.92;3.95;
61804;PMS7003;47725;47.912;7.356;2024-02-21T11:15:05;5.92;3.95;
61804;PMS7003;47725;47.912;7.356;2024-02-21T11:19:06;4.94;3.95;
61804;PMS7003;47725;47.912;7.356;2024-02-21T11:22:56;4.94;3.95;
61804;PMS7003;47725;47.912;7.356;2024-02-21T11:27:07;3.95;3.95;
61804;PMS7003;47725;47.912;7.356;2024-02-21T11:31:09;3.95;3.95;
61804;PMS7003;47725;47.912;7.356;2024-02-21T11:34:57;3.95;3.95;
61804;PMS7003;47725;47.912;7.356;2024-02-21T11:39:02;2.97;2.97;
61804;PMS7003;47725;47.912;7.356;2024-02-21T11:42:58;2.97;2.97;
61804;PMS7003;47725;47.912;7.356;2024-02-21T11:46:56;1.98;1.98;
61804;PMS7003;47725;47.912;7.356;2024-02-21T11:50:56;1.98;1.98;
61804;PMS7003;47725;47.912;7.356;2024-02-21T11:54:56;1.98;1.98;
61804;PMS7003;47725;47.912;7.356;2024-02-21T11:58:58;3.96;3.96;
61804;PMS7003;47725;47.912;7.356;2024-02-21T12:02:56;3.96;3.96;
61804;PMS7003;47725;47.912;7.356;2024-02-21T12:06:57;2.97;2.97;
61804;PMS7003;47725;47.912;7.356;2024-02-21T12:10:56;2.97;2.97;
61804;PMS7003;47725;47.912;7.356;2024-02-21T12:18:57;3.97;1.98;
61804;PMS7003;47725;47.912;7.356;2024-02-21T12:22:56;3.97;1.98;
61804;PMS7003;47725;47.912;7.356;2024-02-21T12:26:56;6.94;4.95;
61804;PMS7003;47725;47.912;7.356;2024-02-21T12:30:56;6.94;4.95;
61804;PMS7003;47725;47.912;7.356;2024-02-21T12:34:56;6.94;4.95;
61804;PMS7003;47725;47.912;7.356;2024-02-21T12:38:56;4.95;2.97;
61804;PMS7003;47725;47.912;7.356;2024-02-21T12:42:56;4.95;2.97;
61804;PMS7003;47725;47.912;7.356;2024-02-21T12:46:56;5.95;4.96;
61804;PMS7003;47725;47.912;7.356;2024-02-21T12:50:57;5.95;4.96;
61804;PMS7003;47725;47.912;7.356;2024-02-21T12:54:56;5.95;4.96;
61804;PMS7003;47725;47.912;7.356;2024-02-21T12:58:57;1.98;1.98;
61804;PMS7003;47725;47.912;7.356;2024-02-21T13:02:56;1.98;1.98;
61804;PMS7003;47725;47.912;7.356;2024-02-21T13:06:56;4.96;1.98;
61804;PMS7003;47725;47.912;7.356;2024-02-21T13:10:56;4.96;1.98;
61804;PMS7003;47725;47.912;7.356;2024-02-21T13:14:56;4.96;1.98;
61804;PMS7003;47725;47.912;7.356;2024-02-21T13:18:56;2.98;2.98;
61804;PMS7003;47725;47.912;7.356;2024-02-21T13:22:56;2.98;2.98;
61804;PMS7003;47725;47.912;7.356;2024-02-21T13:26:56;2.98;1.99;
61804;PMS7003;47725;47.912;7.356;2024-02-21T13:30:56;2.98;1.99;
61804;PMS7003;47725;47.912;7.356;2024-02-21T13:34:56;2.98;1.99;
61804;PMS7003;47725;47.912;7.356;2024-02-21T13:38:56;2.98;2.98;
61804;PMS7003;47725;47.912;7.356;2024-02-21T13:42:56;2.98;2.98;
61804;PMS7003;47725;47.912;7.356;2024-02-21T13:46:56;6.95;2.98;
61804;PMS7003;47725;47.912;7.356;2024-02-21T13:50:56;6.95;2.98;
61804;PMS7003;47725;47.912;7.356;2024-02-21T13:54:56;6.95;2.98;
61804;PMS7003;47725;47.912;7.356;2024-02-21T13:58:57;3.97;2.98;
61804;PMS7003;47725;47.912;7.356;2024-02-21T14:02:56;3.97;2.98;
61804;PMS7003;47725;47.912;7.356;2024-02-21T14:06:56;5.95;2.98;
61804;PMS7003;47725;47.912;7.356;2024-02-21T14:10:56;5.95;2.98;
61804;PMS7003;47725;47.912;7.356;2024-02-21T14:14:56;5.95;2.98;
61804;PMS7003;47725;47.912;7.356;2024-02-21T14:18:56;2.98;2.98;
61804;PMS7003;47725;47.912;7.356;2024-02-21T14:22:56;2.98;2.98;
61804;PMS7003;47725;47.912;7.356;2024-02-21T14:26:56;2.98;2.98;
61804;PMS7003;47725;47.912;7.356;2024-02-21T14:30:56;2.98;2.98;
61804;PMS7003;47725;47.912;7.356;2024-02-21T14:34:56;2.98;2.98;
61804;PMS7003;47725;47.912;7.356;2024-02-21T14:38:56;3.97;3.97;
61804;PMS7003;47725;47.912;7.356;2024-02-21T14:42:56;3.97;3.97;
61804;PMS7003;47725;47.912;7.356;2024-02-21T14:46:56;6.96;4.97;
61804;PMS7003;47725;47.912;7.356;2024-02-21T14:50:56;6.96;4.97;
61804;PMS7003;47725;47.912;7.356;2024-02-21T14:54:56;6.96;4.97;
61804;PMS7003;47725;47.912;7.356;2024-02-21T14:58:56;3.97;1.99;
61804;PMS7003;47725;47.912;7.356;2024-02-21T15:02:56;3.97;1.99;
61804;PMS7003;47725;47.912;7.356;2024-02-21T15:06:56;3.98;2.98;
61804;PMS7003;47725;47.912;7.356;2024-02-21T15:10:56;3.98;2.98;
61804;PMS7003;47725;47.912;7.356;2024-02-21T15:14:56;3.98;2.98;
61804;PMS7003;47725;47.912;7.356;2024-02-21T15:18:56;4.96;4.96;
61804;PMS7003;47725;47.912;7.356;2024-02-21T15:22:56;4.96;4.96;
61804;PMS7003;47725;47.912;7.356;2024-02-21T15:26:56;3.97;3.97;
61804;PMS7003;47725;47.912;7.356;2024-02-21T15:30:56;3.97;3.97;
61804;PMS7003;47725;47.912;7.356;2024-02-21T15:34:56;3.97;3.97;
61804;PMS7003;47725;47.912;7.356;2024-02-21T15:38:56;4.95;4.95;
61804;PMS7003;47725;47.912;7.356;2024-02-21T15:42:56;4.95;4.95;
61804;PMS7003;47725;47.912;7.356;2024-02-21T15:46:56;4.95;3.96;
61804;PMS7003;47725;47.912;7.356;2024-02-21T15:50:56;4.95;3.96;
61804;PMS7003;47725;47.912;7.356;2024-02-21T15:54:56;4.95;3.96;
61804;PMS7003;47725;47.912;7.356;2024-02-21T15:58:56;2.97;2.97;
61804;PMS7003;47725;47.912;7.356;2024-02-21T16:02:56;2.97;2.97;
61804;PMS7003;47725;47.912;7.356;2024-02-21T16:06:58;3.96;2.97;
61804;PMS7003;47725;47.912;7.356;2024-02-21T16:10:56;3.96;2.97;
61804;PMS7003;47725;47.912;7.356;2024-02-21T16:14:56;3.96;2.97;
61804;PMS7003;47725;47.912;7.356;2024-02-21T16:18:56;2.97;2.97;
61804;PMS7003;47725;47.912;7.356;2024-02-21T16:22:56;2.97;2.97;
61804;PMS7003;47725;47.912;7.356;2024-02-21T16:26:56;1.99;1.99;
61804;PMS7003;47725;47.912;7.356;2024-02-21T16:30:56;1.99;1.99;
61804;PMS7003;47725;47.912;7.356;2024-02-21T16:34:56;1.99;1.99;
61804;PMS7003;47725;47.912;7.356;2024-02-21T16:38:57;1.99;1.99;
61804;PMS7003;47725;47.912;7.356;2024-02-21T16:42:56;1.99;1.99;
61804;PMS7003;47725;47.912;7.356;2024-02-21T16:46:56;2.98;2.98;
61804;PMS7003;47725;47.912;7.356;2024-02-21T16:50:56;2.98;2.98;
61804;PMS7003;47725;47.912;7.356;2024-02-21T16:54:56;2.98;2.98;
61804;PMS7003;47725;47.912;7.356;2024-02-21T16:58:56;3.97;3.97;
61804;PMS7003;47725;47.912;7.356;2024-02-21T17:02:56;3.97;3.97;
61804;PMS7003;47725;47.912;7.356;2024-02-21T17:06:56;6.95;4.97;
61804;PMS7003;47725;47.912;7.356;2024-02-21T17:10:56;6.95;4.97;
61804;PMS7003;47725;47.912;7.356;2024-02-21T17:14:56;6.95;4.97;
61804;PMS7003;47725;47.912;7.356;2024-02-21T17:18:56;4.97;4.97;
61804;PMS7003;47725;47.912;7.356;2024-02-21T17:22:56;4.97;4.97;
61804;PMS7003;47725;47.912;7.356;2024-02-21T17:26:56;6.95;6.95;
61804;PMS7003;47725;47.912;7.356;2024-02-21T17:30:56;6.95;6.95;
61804;PMS7003;47725;47.912;7.356;2024-02-21T17:34:56;6.95;6.95;
61804;PMS7003;47725;47.912;7.356;2024-02-21T17:38:56;6.94;6.94;
61804;PMS7003;47725;47.912;7.356;2024-02-21T17:42:56;6.94;6.94;
61804;PMS7003;47725;47.912;7.356;2024-02-21T17:46:56;5.95;5.95;
61804;PMS7003;47725;47.912;7.356;2024-02-21T17:50:56;5.95;5.95;
61804;PMS7003;47725;47.912;7.356;2024-02-21T17:54:56;5.95;5.95;
61804;PMS7003;47725;47.912;7.356;2024-02-21T17:58:56;32.71;27.75;
61804;PMS7003;47725;47.912;7.356;2024-02-21T18:02:56;32.71;27.75;
61804;PMS7003;47725;47.912;7.356;2024-02-21T18:06:56;8.92;8.92;
61804;PMS7003;47725;47.912;7.356;2024-02-21T18:10:56;8.92;8.92;
61804;PMS7003;47725;47.912;7.356;2024-02-21T18:14:56;8.92;8.92;
61804;PMS7003;47725;47.912;7.356;2024-02-21T18:18:56;6.93;5.94;
61804;PMS7003;47725;47.912;7.356;2024-02-21T18:22:56;6.93;5.94;
61804;PMS7003;47725;47.912;7.356;2024-02-21T18:26:56;10.90;9.91;
61804;PMS7003;47725;47.912;7.356;2024-02-21T18:30:56;10.90;9.91;
61804;PMS7003;47725;47.912;7.356;2024-02-21T18:34:56;10.90;9.91;
61804;PMS7003;47725;47.912;7.356;2024-02-21T18:38:56;7.92;7.92;
61804;PMS7003;47725;47.912;7.356;2024-02-21T18:42:56;7.92;7.92;
61804;PMS7003;47725;47.912;7.356;2024-02-21T18:46:56;8.91;7.92;
61804;PMS7003;47725;47.912;7.356;2024-02-21T18:50:56;8.91;7.92;
61804;PMS7003;47725;47.912;7.356;2024-02-21T18:54:56;8.91;7.92;
61804;PMS7003;47725;47.912;7.356;2024-02-21T18:58:56;9.89;9.89;
61804;PMS7003;47725;47.912;7.356;2024-02-21T19:02:56;9.89;9.89;
61804;PMS7003;47725;47.912;7.356;2024-02-21T19:06:56;12.85;10.87;
61804;PMS7003;47725;47.912;7.356;2024-02-21T19:10:56;12.85;10.87;
61804;PMS7003;47725;47.912;7.356;2024-02-21T19:14:56;12.85;10.87;
61804;PMS7003;47725;47.912;7.356;2024-02-21T19:18:56;9.89;8.90;
61804;PMS7003;47725;47.912;7.356;2024-02-21T19:22:56;9.89;8.90;
61804;PMS7003;47725;47.912;7.356;2024-02-21T19:26:56;9.88;9.88;
61804;PMS7003;47725;47.912;7.356;2024-02-21T19:30:56;9.88;9.88;
61804;PMS7003;47725;47.912;7.356;2024-02-21T19:34:56;9.88;9.88;
61804;PMS7003;47725;47.912;7.356;2024-02-21T19:38:56;11.85;8.89;
61804;PMS7003;47725;47.912;7.356;2024-02-21T19:42:59;11.85;8.89;
61804;PMS7003;47725;47.912;7.356;2024-02-21T19:46:56;14.80;13.81;
61804;PMS7003;47725;47.912;7.356;2024-02-21T19:50:56;14.80;13.81;
61804;PMS7003;47725;47.912;7.356;2024-02-21T19:54:56;14.80;13.81;
61804;PMS7003;47725;47.912;7.356;2024-02-21T19:58:56;13.80;12.81;
61804;PMS7003;47725;47.912;7.356;2024-02-21T20:02:56;13.80;12.81;
61804;PMS7003;47725;47.912;7.356;2024-02-21T20:06:56;10.84;10.84;
61804;PMS7003;47725;47.912;7.356;2024-02-21T20:10:56;10.84;10.84;
61804;PMS7003;47725;47.912;7.356;2024-02-21T20:14:56;10.84;10.84;
61804;PMS7003;47725;47.912;7.356;2024-02-21T20:18:56;9.84;9.84;
61804;PMS7003;47725;47.912;7.356;2024-02-21T20:22:56;9.84;9.84;
61804;PMS7003;47725;47.912;7.356;2024-02-21T20:26:56;9.84;8.86;
61804;PMS7003;47725;47.912;7.356;2024-02-21T20:30:56;9.84;8.86;
61804;PMS7003;47725;47.912;7.356;2024-02-21T20:34:56;9.84;8.86;
61804;PMS7003;47725;47.912;7.356;2024-02-21T20:38:56;9.85;7.88;
61804;PMS7003;47725;47.912;7.356;2024-02-21T20:42:56;9.85;7.88;
61804;PMS7003;47725;47.912;7.356;2024-02-21T20:46:56;13.79;13.79;
61804;PMS7003;47725;47.912;7.356;2024-02-21T20:50:56;13.79;13.79;
61804;PMS7003;47725;47.912;7.356;2024-02-21T20:54:56;13.79;13.79;
61804;PMS7003;47725;47.912;7.356;2024-02-21T20:58:56;15.75;15.75;
61804;PMS7003;47725;47.912;7.356;2024-02-21T21:02:56;15.75;15.75;
61804;PMS7003;47725;47.912;7.356;2024-02-21T21:06:56;21.69;19.71;
61804;PMS7003;47725;47.912;7.356;2024-02-21T21:10:56;21.69;19.71;
61804;PMS7003;47725;47.912;7.356;2024-02-21T21:14:56;21.69;19.71;
61804;PMS7003;47725;47.912;7.356;2024-02-21T21:18:56;5.93;5.93;
61804;PMS7003;47725;47.912;7.356;2024-02-21T21:22:56;5.93;5.93;
61804;PMS7003;47725;47.912;7.356;2024-02-21T21:26:56;8.91;8.91;
61804;PMS7003;47725;47.912;7.356;2024-02-21T21:30:56;8.91;8.91;
61804;PMS7003;47725;47.912;7.356;2024-02-21T21:34:56;8.91;8.91;
61804;PMS7003;47725;47.912;7.356;2024-02-21T21:38:56;13.87;10.90;
61804;PMS7003;47725;47.912;7.356;2024-02-21T21:42:56;13.87;10.90;
61804;PMS7003;47725;47.912;7.356;2024-02-21T21:46:56;9.90;6.93;
61804;PMS7003;47725;47.912;7.356;2024-02-21T21:50:56;9.90;6.93;
61804;PMS7003;47725;47.912;7.356;2024-02-21T21:54:56;9.90;6.93;
61804;PMS7003;47725;47.912;7.356;2024-02-21T21:58:56;3.97;2.98;
61804;PMS7003;47725;47.912;7.356;2024-02-21T22:02:56;3.97;2.98;
61804;PMS7003;47725;47.912;7.356;2024-02-21T22:06:56;9.92;5.95;
61804;PMS7003;47725;47.912;7.356;2024-02-21T22:10:56;9.92;5.95;
61804;PMS7003;47725;47.912;7.356;2024-02-21T22:14:56;9.92;5.95;
61804;PMS7003;47725;47.912;7.356;2024-02-21T22:18:56;2.98;2.98;
61804;PMS7003;47725;47.912;7.356;2024-02-21T22:22:56;2.98;2.98;
61804;PMS7003;47725;47.912;7.356;2024-02-21T22:26:56;3.98;3.98;
61804;PMS7003;47725;47.912;7.356;2024-02-21T22:30:56;3.98;3.98;
61804;PMS7003;47725;47.912;7.356;2024-02-21T22:34:56;3.98;3.98;
61804;PMS7003;47725;47.912;7.356;2024-02-21T22:38:56;3.98;2.99;
61804;PMS7003;47725;47.912;7.356;2024-02-21T22:42:56;3.98;2.99;
61804;PMS7003;47725;47.912;7.356;2024-02-21T22:46:56;1.99;1.00;
61804;PMS7003;47725;47.912;7.356;2024-02-21T22:50:56;1.99;1.00;
61804;PMS7003;47725;47.912;7.356;2024-02-21T22:54:56;1.99;1.00;
61804;PMS7003;47725;47.912;7.356;2024-02-21T22:58:56;0.99;0.99;
61804;PMS7003;47725;47.912;7.356;2024-02-21T23:02:56;0.99;0.99;
61804;PMS7003;47725;47.912;7.356;2024-02-21T23:07:06;0.99;0.99;
61804;PMS7003;47725;47.912;7.356;2024-02-21T23:10:56;0.99;0.99;
61804;PMS7003;47725;47.912;7.356;2024-02-21T23:14:56;0.99;0.99;
61804;PMS7003;47725;47.912;7.356;2024-02-21T23:18:56;0.99;0.99;
61804;PMS7003;47725;47.912;7.356;2024-02-21T23:22:56;0.99;0.99;
61804;PMS7003;47725;47.912;7.356;2024-02-21T23:26:56;1.98;1.98;
61804;PMS7003;47725;47.912;7.356;2024-02-21T23:30:56;1.98;1.98;
61804;PMS7003;47725;47.912;7.356;2024-02-21T23:34:56;1.98;1.98;
61804;PMS7003;47725;47.912;7.356;2024-02-21T23:38:56;1.98;1.98;
61804;PMS7003;47725;47.912;7.356;2024-02-21T23:42:56;1.98;1.98;
61804;PMS7003;47725;47.912;7.356;2024-02-21T23:46:56;1.98;1.98;
61804;PMS7003;47725;47.912;7.356;2024-02-21T23:50:56;1.98;1.98;
61804;PMS7003;47725;47.912;7.356;2024-02-21T23:54:56;1.98;1.98;
61804;PMS7003;47725;47.912;7.356;2024-02-21T23:58:56;2.96;2.96;
